Time;durP1;ratioP1;P1;durP2;ratioP2;P2;SDS_P1;SDS_P2;PMS_P1;PMS_P2;Temp;Humidity;BMP_temperature;BMP_pressure;BME280_temperature;BME280_humidity;BME280_pressure;Samples;Min_cycle;Max_cycle;Signal;HPM_P1;HPM_P2
2023/08/11 00:02:26;;;;;;;15.40;13.90;;;;;;;11.23;100.00;99513.64;109489;1252;66097;-72
2023/08/11 00:04:53;;;;;;;15.60;14.00;;;;;;;11.18;100.00;99512.86;109511;1252;59994;-72
2023/08/11 00:07:19;;;;;;;15.70;13.90;;;;;;;11.12;100.00;99511.11;109518;1252;63731;-72
2023/08/11 00:09:46;;;;;;;15.20;13.40;;;;;;;11.03;100.00;99509.88;109488;1252;59090;-73
2023/08/11 00:12:12;;;;;;;17.80;16.00;;;;;;;10.95;100.00;99511.95;109357;1252;59121;-71
2023/08/11 00:14:39;;;;;;;16.40;14.90;;;;;;;10.93;100.00;99511.20;109499;1252;75833;-71
2023/08/11 00:17:06;;;;;;;17.40;15.30;;;;;;;10.92;100.00;99510.51;109490;1252;61325;-72
2023/08/11 00:19:32;;;;;;;16.90;15.10;;;;;;;10.93;100.00;99512.98;109510;1252;63820;-72
2023/08/11 00:21:59;;;;;;;17.00;15.30;;;;;;;10.88;100.00;99511.10;109526;1252;59035;-72
2023/08/11 00:24:26;;;;;;;18.10;16.20;;;;;;;10.85;100.00;99507.58;109543;1253;59066;-72
2023/08/11 00:26:52;;;;;;;17.50;15.70;;;;;;;10.84;100.00;99506.38;109545;1252;74822;-72
2023/08/11 00:29:19;;;;;;;17.90;16.10;;;;;;;10.84;100.00;99506.56;109529;1251;68666;-71
2023/08/11 00:31:46;;;;;;;17.70;15.80;;;;;;;10.82;100.00;99503.84;109577;1252;64199;-72
2023/08/11 00:34:13;;;;;;;18.50;16.70;;;;;;;10.80;100.00;99503.81;109521;1253;58955;-72
2023/08/11 00:36:40;;;;;;;19.10;17.50;;;;;;;10.79;100.00;99502.27;109525;1252;58943;-72
2023/08/11 00:39:07;;;;;;;19.40;17.30;;;;;;;10.77;100.00;99504.70;109580;1253;65710;-74
2023/08/11 00:41:34;;;;;;;18.40;16.60;;;;;;;10.75;100.00;99509.06;109597;1254;59496;-72
2023/08/11 00:44:01;;;;;;;19.50;15.80;;;;;;;10.74;100.00;99505.39;109301;1253;171648;-72
2023/08/11 00:46:28;;;;;;;16.60;15.00;;;;;;;10.72;100.00;99502.29;109525;1253;58961;-72
2023/08/11 00:48:54;;;;;;;19.90;17.80;;;;;;;10.69;100.00;99504.96;109479;1252;59011;-71
2023/08/11 00:51:25;;;;;;;22.70;20.40;;;;;;;10.66;100.00;99508.20;109565;1254;64954;-71
2023/08/11 00:53:51;;;;;;;;;;;;;;;10.64;100.00;99507.44;109543;1254;60136;-71
2023/08/11 00:56:24;;;;;;;17.80;16.00;;;;;;;10.63;100.00;99508.73;109557;1252;64143;-71
2023/08/11 00:58:53;;;;;;;20.80;16.20;;;;;;;10.63;100.00;99506.95;109339;1253;59004;-71
2023/08/11 01:01:19;;;;;;;18.40;16.50;;;;;;;10.64;100.00;99504.02;109535;1252;59335;-71
2023/08/11 01:03:47;;;;;;;17.80;16.10;;;;;;;10.62;100.00;99503.64;109491;1253;65984;-71
2023/08/11 01:06:46;;;;;;;18.60;16.40;;;;;;;10.58;100.00;99506.50;109507;1253;59804;-71
2023/08/11 01:09:31;;;;;;;18.00;16.20;;;;;;;10.51;100.00;99510.30;109524;1254;64063;-71
2023/08/11 01:12:30;;;;;;;18.60;16.70;;;;;;;10.45;100.00;99509.42;109459;1252;58996;-71
2023/08/11 01:15:19;;;;;;;19.00;17.10;;;;;;;10.41;100.00;99510.88;109332;1252;58947;-71
2023/08/11 01:17:48;;;;;;;17.20;15.40;;;;;;;10.40;100.00;99510.41;109536;1254;66227;-71
2023/08/11 01:20:16;;;;;;;17.80;15.90;;;;;;;10.40;100.00;99508.46;109509;1252;60272;-71
2023/08/11 01:22:53;;;;;;;19.30;16.40;;;;;;;10.38;100.00;99506.11;109476;1252;62512;-72
2023/08/11 01:25:20;;;;;;;17.90;16.10;;;;;;;10.35;100.00;99506.25;109529;1252;59014;-72
2023/08/11 01:27:57;;;;;;;17.80;16.00;;;;;;;10.34;100.00;99502.59;109363;1253;61329;-71
2023/08/11 01:30:26;;;;;;;17.90;16.20;;;;;;;10.31;100.00;99502.55;109557;1252;66075;-71
2023/08/11 01:32:53;;;;;;;17.60;15.80;;;;;;;10.28;100.00;99504.52;109303;1253;60349;-72
2023/08/11 01:35:21;;;;;;;16.70;15.00;;;;;;;10.24;100.00;99503.34;109380;1253;65303;-71
2023/08/11 01:37:48;;;;;;;16.90;15.10;;;;;;;10.20;100.00;99501.80;109560;1254;59248;-71
2023/08/11 01:40:14;;;;;;;16.40;14.70;;;;;;;10.17;100.00;99506.02;109509;1256;58955;-71
2023/08/11 01:42:43;;;;;;;16.80;15.20;;;;;;;10.15;100.00;99509.34;109464;1253;66026;-71
2023/08/11 01:45:12;;;;;;;16.80;15.30;;;;;;;10.12;100.00;99508.98;109504;1251;60352;-72
2023/08/11 01:47:41;;;;;;;16.70;15.10;;;;;;;10.06;100.00;99507.18;109454;1254;65249;-72
2023/08/11 01:50:09;;;;;;;18.10;15.40;;;;;;;10.01;100.00;99503.04;109493;1253;58983;-72
2023/08/11 01:52:42;;;;;;;18.50;16.80;;;;;;;9.98;100.00;99506.91;109555;1252;59061;-72
2023/08/11 01:55:10;;;;;;;18.10;16.30;;;;;;;9.98;100.00;99510.30;109535;1254;66108;-72
2023/08/11 01:57:38;;;;;;;18.90;16.90;;;;;;;9.96;100.00;99514.13;109579;1254;67516;-73
2023/08/11 02:00:29;;;;;;;18.90;17.10;;;;;;;9.95;100.00;99513.67;109535;1252;64068;-72
2023/08/11 02:02:57;;;;;;;20.30;16.90;;;;;;;9.94;100.00;99514.95;109498;1254;58957;-72
2023/08/11 02:05:24;;;;;;;21.20;18.30;;;;;;;9.92;100.00;99511.52;109574;1252;59037;-72
2023/08/11 02:07:51;;;;;;;20.30;17.60;;;;;;;9.90;100.00;99510.55;109530;1253;67558;-72
2023/08/11 02:10:18;;;;;;;20.20;18.30;;;;;;;9.88;100.00;99507.65;109342;1253;60131;-72
2023/08/11 02:12:44;;;;;;;20.40;18.20;;;;;;;9.85;100.00;99506.55;109534;1254;64886;-72
2023/08/11 02:15:11;;;;;;;20.30;18.30;;;;;;;9.82;100.00;99508.86;109539;1256;59320;-71
2023/08/11 02:17:37;;;;;;;19.70;17.80;;;;;;;9.79;100.00;99507.27;109565;1253;58979;-71
2023/08/11 02:22:48;;;;;;;22.40;19.00;;;;;;;9.73;100.00;99509.73;109580;1252;59048;-71
2023/08/11 02:25:15;;;;;;;20.50;18.30;;;;;;;9.70;100.00;99509.17;109552;1254;63918;-72
2023/08/11 02:27:42;;;;;;;21.00;18.80;;;;;;;9.68;100.00;99509.61;109505;1254;59152;-72
2023/08/11 02:30:11;;;;;;;22.20;19.70;;;;;;;9.66;100.00;99507.41;109551;1253;58963;-71
2023/08/11 02:32:39;;;;;;;21.20;18.40;;;;;;;9.62;100.00;99507.48;109587;1254;65831;-72
2023/08/11 02:35:06;;;;;;;17.00;15.40;;;;;;;9.61;100.00;99512.85;109549;1254;59110;-72
2023/08/11 02:37:33;;;;;;;16.50;14.90;;;;;;;9.56;100.00;99512.25;109561;1253;64077;-72
2023/08/11 02:40:00;;;;;;;18.40;16.80;;;;;;;9.52;100.00;99516.73;109551;1254;58954;-72
2023/08/11 02:42:26;;;;;;;18.10;16.30;;;;;;;9.51;100.00;99520.50;109535;1254;59005;-72
2023/08/11 02:44:53;;;;;;;18.30;16.40;;;;;;;9.52;100.00;99522.23;109560;1253;64828;-72
2023/08/11 02:47:20;;;;;;;18.30;16.50;;;;;;;9.51;100.00;99525.31;109262;1254;61299;-72
2023/08/11 02:49:47;;;;;;;20.70;18.50;;;;;;;9.46;100.00;99528.56;109580;1254;64043;-72
2023/08/11 02:52:14;;;;;;;18.20;16.60;;;;;;;9.47;100.00;99529.95;109550;1253;59035;-72
2023/08/11 02:54:40;;;;;;;19.00;16.60;;;;;;;9.43;100.00;99529.09;109534;1252;58988;-72
2023/08/11 02:57:07;;;;;;;18.30;16.30;;;;;;;9.37;100.00;99529.59;109537;1255;67201;-72
2023/08/11 02:59:33;;;;;;;18.60;16.70;;;;;;;9.34;100.00;99529.77;109617;1253;59386;-71
2023/08/11 03:02:01;;;;;;;21.00;18.80;;;;;;;9.31;100.00;99530.09;109338;1254;64084;-72
2023/08/11 03:04:27;;;;;;;20.50;18.00;;;;;;;9.28;100.00;99530.95;109496;1254;58983;-72
2023/08/11 03:06:54;;;;;;;19.20;17.40;;;;;;;9.25;100.00;99535.22;109542;1252;59058;-72
2023/08/11 03:09:21;;;;;;;28.50;25.50;;;;;;;9.21;100.00;99532.55;109546;1256;67355;-71
2023/08/11 03:11:48;;;;;;;22.70;20.40;;;;;;;9.21;100.00;99533.42;109562;1253;60186;-72
2023/08/11 03:14:14;;;;;;;22.30;20.10;;;;;;;9.24;100.00;99536.14;109547;1254;64158;-71
2023/08/11 03:16:41;;;;;;;24.40;21.60;;;;;;;9.23;100.00;99535.64;109571;1253;59066;-71
2023/08/11 03:19:08;;;;;;;24.40;21.70;;;;;;;9.20;100.00;99539.38;109507;1252;58999;-72
2023/08/11 03:21:34;;;;;;;25.30;22.60;;;;;;;9.19;100.00;99541.54;109542;1253;65106;-71
2023/08/11 03:24:01;;;;;;;22.80;20.60;;;;;;;9.18;100.00;99541.94;109598;1252;58937;-72
2023/08/11 03:26:27;;;;;;;23.50;21.00;;;;;;;9.18;100.00;99543.00;109489;1253;62818;-72
2023/08/11 03:28:54;;;;;;;23.40;20.70;;;;;;;9.20;100.00;99542.70;109524;1253;59002;-72
2023/08/11 03:31:21;;;;;;;22.10;19.90;;;;;;;9.18;100.00;99539.81;109506;1251;59125;-72
2023/08/11 03:33:47;;;;;;;24.90;20.70;;;;;;;9.16;100.00;99543.28;109532;1253;64736;-72
2023/08/11 03:36:14;;;;;;;23.40;21.00;;;;;;;9.18;100.00;99548.33;109525;1254;60159;-72
2023/08/11 03:38:40;;;;;;;23.20;20.70;;;;;;;9.22;100.00;99549.53;109491;1252;64042;-72
2023/08/11 03:41:07;;;;;;;23.10;20.90;;;;;;;9.25;100.00;99549.91;109372;1253;58997;-72
2023/08/11 03:43:33;;;;;;;21.90;19.80;;;;;;;9.28;100.00;99551.54;109581;1254;61398;-72
2023/08/11 03:46:00;;;;;;;22.10;19.50;;;;;;;9.31;100.00;99551.90;109527;1254;66060;-72
2023/08/11 03:48:26;;;;;;;20.80;18.60;;;;;;;9.34;100.00;99547.12;109542;1254;61017;-71
2023/08/11 03:50:58;;;;;;;21.50;19.30;;;;;;;9.40;100.00;99547.16;109482;1253;64046;-72
2023/08/11 03:53:25;;;;;;;20.30;18.40;;;;;;;9.59;100.00;99548.27;109453;1254;58948;-71
2023/08/11 03:55:52;;;;;;;19.40;17.60;;;;;;;10.17;100.00;99550.08;109481;1252;59626;-71
2023/08/11 03:58:20;;;;;;;19.90;18.00;;;;;;;10.80;100.00;99549.84;109510;1253;66126;-72
2023/08/11 04:00:48;;;;;;;17.50;15.60;;;;;;;11.37;100.00;99550.48;109551;1251;61394;-71
2023/08/11 04:03:14;;;;;;;16.00;14.40;;;;;;;11.93;100.00;99552.19;109510;1252;62694;-71
2023/08/11 04:05:41;;;;;;;14.60;13.10;;;;;;;12.46;100.00;99548.93;109519;1252;59055;-72
2023/08/11 04:08:08;;;;;;;15.70;14.20;;;;;;;12.93;100.00;99548.83;109561;1253;59216;-72
2023/08/11 04:10:35;;;;;;;14.30;12.90;;;;;;;13.40;100.00;99546.16;109500;1254;67360;-72
2023/08/11 04:13:01;;;;;;;13.80;12.60;;;;;;;13.90;100.00;99546.18;109510;1253;60089;-72
2023/08/11 04:15:28;;;;;;;12.80;11.60;;;;;;;14.36;100.00;99549.64;109340;1252;62986;-72
2023/08/11 04:17:54;;;;;;;12.40;11.20;;;;;;;14.80;100.00;99551.46;109543;1252;58954;-72
2023/08/11 04:20:22;;;;;;;11.90;10.80;;;;;;;15.23;100.00;99555.27;109553;1255;59014;-73
2023/08/11 04:22:49;;;;;;;12.30;11.20;;;;;;;15.61;100.00;99557.55;109545;1252;64892;-72
2023/08/11 04:25:16;;;;;;;12.20;11.00;;;;;;;16.03;100.00;99559.61;109499;1254;60186;-72
2023/08/11 04:27:42;;;;;;;12.00;11.00;;;;;;;16.51;100.00;99559.26;109495;1253;73937;-72
2023/08/11 04:30:10;;;;;;;11.30;10.30;;;;;;;16.95;100.00;99559.60;109461;1254;58958;-72
2023/08/11 04:32:37;;;;;;;11.50;10.40;;;;;;;17.28;100.00;99560.70;109230;1254;59131;-72
2023/08/11 04:35:06;;;;;;;11.60;10.40;;;;;;;17.63;100.00;99558.58;109451;1254;66602;-72
2023/08/11 04:37:33;;;;;;;11.30;10.10;;;;;;;18.04;100.00;99560.06;109515;1254;60373;-72
2023/08/11 04:40:05;;;;;;;12.00;10.80;;;;;;;18.41;100.00;99557.61;109542;1254;63864;-72
2023/08/11 04:42:32;;;;;;;11.40;10.40;;;;;;;18.58;100.00;99559.36;109542;1252;59121;-72
2023/08/11 04:44:58;;;;;;;10.60;9.70;;;;;;;18.83;100.00;99560.66;109533;1253;58957;-72
2023/08/11 04:47:25;;;;;;;10.50;9.70;;;;;;;19.13;100.00;99556.95;109505;1254;64879;-72
2023/08/11 04:49:51;;;;;;;11.50;10.50;;;;;;;19.35;100.00;99557.41;109574;1254;60009;-72
2023/08/11 04:52:18;;;;;;;11.00;10.10;;;;;;;19.60;100.00;99559.39;109477;1252;64023;-72
2023/08/11 04:54:45;;;;;;;10.30;9.40;;;;;;;19.89;100.00;99560.08;109499;1254;58938;-72
2023/08/11 04:57:11;;;;;;;9.50;8.60;;;;;;;20.15;100.00;99564.75;109534;1253;58865;-72
2023/08/11 04:59:38;;;;;;;9.40;8.60;;;;;;;20.42;100.00;99566.80;109525;1253;59599;-71
2023/08/11 05:02:04;;;;;;;9.40;8.60;;;;;;;20.66;100.00;99568.75;109537;1254;60058;-72
2023/08/11 05:04:31;;;;;;;9.70;8.50;;;;;;;20.92;100.00;99566.51;109553;1254;63779;-72
2023/08/11 05:06:57;;;;;;;9.10;8.10;;;;;;;21.15;100.00;99568.02;109515;1253;58942;-71
2023/08/11 05:09:24;;;;;;;11.00;7.60;;;;;;;21.35;100.00;99568.27;109536;1254;58951;-72
2023/08/11 05:11:51;;;;;;;8.00;7.30;;;;;;;21.59;100.00;99568.05;109549;1253;67550;-72
2023/08/11 05:14:17;;;;;;;8.70;7.90;;;;;;;21.80;100.00;99572.16;109550;1252;59058;-72
2023/08/11 05:16:44;;;;;;;7.70;7.00;;;;;;;21.94;100.00;99571.02;109514;1253;64184;-72
2023/08/11 05:19:13;;;;;;;8.00;7.10;;;;;;;22.05;100.00;99574.08;109506;1254;58953;-72
2023/08/11 05:21:39;;;;;;;8.40;7.40;;;;;;;22.12;100.00;99572.35;109540;1252;61361;-72
2023/08/11 05:24:07;;;;;;;7.60;6.60;;;;;;;22.11;100.00;99572.48;109338;1254;67249;-72
2023/08/11 05:26:33;;;;;;;8.40;5.70;;;;;;;22.16;100.00;99573.77;109578;1254;61328;-72
2023/08/11 05:29:01;;;;;;;7.10;6.50;;;;;;;22.28;100.00;99573.46;109533;1254;64021;-72
2023/08/11 05:31:28;;;;;;;6.50;5.90;;;;;;;22.37;100.00;99573.39;109544;1253;58986;-72
2023/08/11 05:33:55;;;;;;;6.80;6.20;;;;;;;22.49;100.00;99574.64;109544;1252;58970;-72
2023/08/11 05:36:22;;;;;;;7.20;6.50;;;;;;;22.64;100.00;99570.63;109311;1253;66134;-72
2023/08/11 05:38:48;;;;;;;8.50;6.10;;;;;;;22.72;100.00;99566.50;109498;1253;58991;-72
2023/08/11 05:41:15;;;;;;;6.80;5.90;;;;;;;22.80;100.00;99567.50;109449;1254;65295;-72
2023/08/11 05:43:41;;;;;;;7.60;5.80;;;;;;;22.90;99.68;99569.49;109561;1253;59061;-72
2023/08/11 05:46:08;;;;;;;6.30;5.80;;;;;;;22.96;98.94;99567.23;109442;1253;59193;-72
2023/08/11 05:48:37;;;;;;;6.60;6.00;;;;;;;22.97;97.83;99568.17;109268;1252;64523;-72
2023/08/11 05:51:04;;;;;;;6.50;5.90;;;;;;;22.93;96.56;99566.39;109455;1254;69811;-72
2023/08/11 05:53:31;;;;;;;6.30;5.80;;;;;;;22.92;97.15;99565.66;109527;1252;64115;-72
2023/08/11 05:55:58;;;;;;;6.10;5.50;;;;;;;23.08;97.07;99568.41;109475;1253;58979;-72
2023/08/11 05:58:24;;;;;;;8.10;6.10;;;;;;;23.24;96.83;99570.63;109509;1252;58879;-71
2023/08/11 06:00:51;;;;;;;7.70;6.10;;;;;;;23.37;95.89;99567.10;109542;1252;64774;-72
2023/08/11 06:03:18;;;;;;;6.90;6.10;;;;;;;23.41;95.54;99570.05;109544;1253;59032;-71
2023/08/11 06:05:44;;;;;;;6.90;6.00;;;;;;;23.53;96.21;99568.09;109528;1252;64104;-71
2023/08/11 06:08:11;;;;;;;6.60;5.90;;;;;;;23.71;95.89;99572.20;109347;1253;58979;-71
2023/08/11 06:10:37;;;;;;;7.20;6.70;;;;;;;23.80;95.20;99572.53;109501;1253;59116;-71
2023/08/11 06:13:04;;;;;;;6.00;5.40;;;;;;;23.90;94.24;99574.38;109354;1252;67241;-71
2023/08/11 06:15:30;;;;;;;6.50;6.00;;;;;;;23.90;93.40;99573.29;109547;1251;60974;-71
2023/08/11 06:17:57;;;;;;;6.40;5.70;;;;;;;23.95;93.79;99572.86;109311;1253;65265;-71
2023/08/11 06:20:24;;;;;;;6.40;5.70;;;;;;;24.17;93.64;99573.06;109508;1253;58947;-71
2023/08/11 06:22:51;;;;;;;6.60;6.00;;;;;;;24.23;92.59;99574.58;109534;1252;59098;-71
2023/08/11 06:25:17;;;;;;;7.40;5.80;;;;;;;24.21;92.10;99574.23;109377;1254;64837;-71
2023/08/11 06:27:44;;;;;;;6.80;6.10;;;;;;;24.35;92.30;99573.77;109400;1252;60376;-71
2023/08/11 06:30:11;;;;;;;7.20;5.40;;;;;;;24.46;91.82;99576.13;109555;1252;64038;-71
2023/08/11 06:32:38;;;;;;;6.20;5.60;;;;;;;24.57;91.09;99580.82;109497;1251;58970;-71
2023/08/11 06:35:07;;;;;;;6.40;5.70;;;;;;;24.71;91.17;99575.42;109547;1252;59030;-71
2023/08/11 06:37:34;;;;;;;6.20;5.60;;;;;;;24.80;89.90;99573.65;109292;1254;65798;-71
2023/08/11 06:40:00;;;;;;;6.20;5.60;;;;;;;24.77;89.55;99574.90;109549;1252;60557;-71
2023/08/11 06:42:27;;;;;;;7.20;5.70;;;;;;;24.82;89.56;99577.91;109498;1252;63023;-71
2023/08/11 06:44:53;;;;;;;6.40;5.60;;;;;;;25.06;89.14;99575.28;109545;1251;58997;-72
2023/08/11 06:47:20;;;;;;;6.30;5.60;;;;;;;25.21;87.82;99576.68;109525;1253;59113;-71
2023/08/11 06:49:47;;;;;;;7.90;5.40;;;;;;;25.24;88.20;99579.89;109524;1252;64908;-72
2023/08/11 06:52:13;;;;;;;6.70;5.80;;;;;;;25.27;87.08;99580.46;109544;1253;60194;-71
2023/08/11 06:54:40;;;;;;;8.50;5.40;;;;;;;25.09;85.82;99583.48;109563;1252;73680;-71
2023/08/11 06:57:07;;;;;;;9.10;5.40;;;;;;;24.97;86.01;99580.66;109484;1253;59044;-71
2023/08/11 06:59:33;;;;;;;7.50;4.60;;;;;;;24.91;85.92;99582.27;109583;1252;59073;-71
2023/08/11 07:02:00;;;;;;;8.50;5.30;;;;;;;24.87;86.47;99588.74;109511;1253;59637;-71
2023/08/11 07:04:26;;;;;;;7.20;4.90;;;;;;;24.94;86.23;99587.91;109552;1252;59054;-71
2023/08/11 07:06:54;;;;;;;8.00;5.10;;;;;;;24.87;85.27;99585.98;109382;1252;64178;-71
2023/08/11 07:09:21;;;;;;;13.40;6.40;;;;;;;24.69;85.00;99586.14;109461;1252;58907;-71
2023/08/11 07:11:47;;;;;;;4.90;4.40;;;;;;;24.44;85.44;99592.10;109582;1252;59045;-71
2023/08/11 07:14:14;;;;;;;7.90;4.70;;;;;;;24.04;84.84;99592.54;109511;1253;66984;-72
2023/08/11 07:16:40;;;;;;;8.00;5.80;;;;;;;23.76;85.39;99591.65;109532;1252;61423;-72
2023/08/11 07:19:07;;;;;;;8.10;5.20;;;;;;;23.55;86.16;99592.92;109527;1253;72847;-71
2023/08/11 07:21:34;;;;;;;7.60;5.20;;;;;;;23.40;86.45;99593.64;109385;1253;58981;-72
2023/08/11 07:24:00;;;;;;;7.30;5.10;;;;;;;23.15;86.63;99593.80;109564;1251;58887;-72
2023/08/11 07:26:27;;;;;;;6.10;4.90;;;;;;;22.94;87.13;99593.25;109557;1253;64600;-72
2023/08/11 07:28:54;;;;;;;5.50;5.10;;;;;;;22.85;88.40;99595.19;109543;1251;60205;-72
2023/08/11 07:31:20;;;;;;;6.90;4.90;;;;;;;22.74;88.54;99596.90;109510;1253;62855;-72
2023/08/11 07:33:47;;;;;;;8.00;4.50;;;;;;;22.59;88.40;99596.42;109544;1252;58985;-72
2023/08/11 07:36:13;;;;;;;5.00;4.20;;;;;;;22.43;86.48;99596.33;109540;1252;59027;-71
2023/08/11 07:38:40;;;;;;;5.60;4.40;;;;;;;22.27;86.68;99591.69;109542;1252;66024;-71
2023/08/11 07:41:07;;;;;;;6.90;4.30;;;;;;;22.08;86.99;99592.60;109562;1253;59089;-73
2023/08/11 07:43:33;;;;;;;5.50;4.20;;;;;;;21.91;87.13;99592.34;109554;1252;62804;-72
2023/08/11 07:46:00;;;;;;;4.70;4.30;;;;;;;21.84;86.49;99590.16;109359;1254;59010;-72
2023/08/11 07:48:27;;;;;;;6.00;4.20;;;;;;;21.77;86.41;99592.95;109607;1251;59026;-72
2023/08/11 07:50:53;;;;;;;4.90;4.30;;;;;;;21.75;87.23;99596.71;109637;1251;64521;-72
2023/08/11 07:53:20;;;;;;;6.30;3.90;;;;;;;21.74;87.45;99597.52;109382;1251;60218;-72
2023/08/11 07:55:46;;;;;;;7.60;4.60;;;;;;;21.72;87.29;99597.63;109603;1251;63744;-71
2023/08/11 07:58:13;;;;;;;6.00;4.40;;;;;;;21.60;86.98;99599.55;109633;1251;58984;-72
2023/08/11 08:00:39;;;;;;;6.10;5.00;;;;;;;21.61;88.40;99596.34;109622;1251;59214;-72
2023/08/11 08:03:06;;;;;;;5.90;4.60;;;;;;;21.71;88.90;99598.75;109630;1251;75444;-72
2023/08/11 08:05:33;;;;;;;6.80;4.60;;;;;;;21.75;88.65;99599.97;109642;1251;59069;-72
2023/08/11 08:08:00;;;;;;;5.30;4.40;;;;;;;21.80;88.14;99596.98;109596;1251;64043;-72
2023/08/11 08:10:27;;;;;;;4.70;4.10;;;;;;;21.84;88.47;99596.46;109630;1251;59028;-72
2023/08/11 08:12:54;;;;;;;4.80;4.20;;;;;;;21.85;88.18;99593.48;109597;1251;59002;-72
2023/08/11 08:15:21;;;;;;;5.50;4.50;;;;;;;21.90;88.47;99589.13;109616;1251;67175;-72
2023/08/11 08:17:47;;;;;;;6.20;4.10;;;;;;;22.01;88.93;99591.70;109608;1251;61450;-72
2023/08/11 08:20:16;;;;;;;5.50;3.70;;;;;;;22.10;89.33;99592.49;109653;1251;64142;-71
2023/08/11 08:22:42;;;;;;;9.80;4.70;;;;;;;22.21;88.11;99594.82;109632;1251;58963;-73
2023/08/11 08:25:09;;;;;;;3.60;3.30;;;;;;;22.29;87.83;99592.86;109672;1251;59469;-72
2023/08/11 08:27:38;;;;;;;4.80;3.70;;;;;;;22.33;87.50;99591.91;109388;1251;64519;-72
2023/08/11 08:30:06;;;;;;;4.50;3.50;;;;;;;22.41;88.00;99584.89;109617;1251;60110;-73
2023/08/11 08:32:33;;;;;;;4.20;3.30;;;;;;;22.51;87.44;99588.33;109574;1251;65286;-71
2023/08/11 08:35:00;;;;;;;5.80;3.70;;;;;;;22.61;87.28;99586.89;109413;1251;59076;-72
2023/08/11 08:37:28;;;;;;;6.50;3.10;;;;;;;22.72;86.15;99583.04;109580;1251;59016;-72
2023/08/11 08:39:55;;;;;;;3.60;3.10;;;;;;;22.75;85.59;99580.30;109426;1250;65854;-72
2023/08/11 08:42:21;;;;;;;4.70;3.20;;;;;;;22.85;85.17;99582.14;109553;1251;59002;-71
2023/08/11 08:44:49;;;;;;;5.20;3.00;;;;;;;22.88;82.14;99581.23;109611;1251;62970;-71
2023/08/11 08:47:18;;;;;;;4.80;3.00;;;;;;;22.90;82.17;99581.76;109633;1251;59038;-72
2023/08/11 08:49:46;;;;;;;4.80;3.10;;;;;;;22.99;82.47;99586.11;109573;1251;58984;-72
2023/08/11 08:52:12;;;;;;;4.30;2.80;;;;;;;23.09;82.65;99587.52;109615;1251;66099;-72
2023/08/11 08:54:40;;;;;;;4.70;2.60;;;;;;;23.17;82.90;99592.04;109621;1251;59360;-72
2023/08/11 08:57:10;;;;;;;4.50;2.70;;;;;;;23.30;83.95;99589.25;109624;1251;64123;-72
2023/08/11 08:59:38;;;;;;;3.80;2.40;;;;;;;23.44;82.84;99587.41;109645;1251;58988;-72
2023/08/11 09:02:06;;;;;;;3.30;2.90;;;;;;;23.52;81.64;99585.14;109627;1251;59031;-72
2023/08/11 09:04:33;;;;;;;3.00;2.70;;;;;;;23.50;80.27;99584.60;109488;1254;67188;-71
2023/08/11 09:07:00;;;;;;;5.10;2.50;;;;;;;23.42;78.20;99583.48;109637;1250;58993;-71
2023/08/11 09:09:27;;;;;;;4.90;2.40;;;;;;;23.41;79.03;99583.05;109404;1251;63781;-72
2023/08/11 09:11:54;;;;;;;4.90;2.50;;;;;;;23.53;79.56;99584.86;109605;1251;58957;-72
2023/08/11 09:14:21;;;;;;;3.10;2.30;;;;;;;23.64;78.31;99582.70;109465;1251;59056;-72
2023/08/11 09:16:53;;;;;;;2.20;1.90;;;;;;;23.72;78.66;99580.20;109604;1251;64787;-81
2023/08/11 09:19:20;;;;;;;4.10;2.10;;;;;;;23.78;76.42;99581.73;109404;1251;59024;-75
2023/08/11 09:21:47;;;;;;;3.40;1.90;;;;;;;23.86;76.44;99584.26;109572;1251;62516;-75
2023/08/11 09:24:14;;;;;;;2.20;2.10;;;;;;;23.88;73.78;99587.02;109582;1251;59035;-76
2023/08/11 09:26:49;;;;;;;3.60;2.00;;;;;;;23.82;73.53;99587.73;109623;1251;58963;-76
2023/08/11 09:29:19;;;;;;;2.20;1.70;;;;;;;23.81;73.04;99585.56;109632;1251;66117;-75
2023/08/11 09:31:52;;;;;;;4.30;2.20;;;;;;;23.80;72.31;99584.08;109632;1251;59002;-76
2023/08/11 09:34:19;;;;;;;6.00;2.20;;;;;;;23.80;71.06;99581.52;109569;1251;62579;-76
2023/08/11 09:36:50;;;;;;;2.50;2.20;;;;;;;23.85;71.78;99581.64;109545;1251;58949;-76
2023/08/11 09:39:17;;;;;;;3.60;2.50;;;;;;;23.96;72.03;99578.98;109590;1251;58920;-75
2023/08/11 09:41:47;;;;;;;3.10;2.40;;;;;;;24.04;72.72;99576.40;109620;1251;66004;-75
2023/08/11 09:44:16;;;;;;;3.80;2.20;;;;;;;24.17;72.83;99575.31;109664;1251;59807;-75
2023/08/11 09:46:44;;;;;;;3.60;2.50;;;;;;;24.18;70.48;99574.28;109598;1251;64047;-77
2023/08/11 09:49:10;;;;;;;3.00;2.10;;;;;;;24.12;69.23;99578.56;109594;1251;58935;-77
2023/08/11 09:51:39;;;;;;;3.00;2.10;;;;;;;24.05;67.28;99576.92;109657;1251;58980;-75
2023/08/11 09:54:08;;;;;;;4.20;2.00;;;;;;;24.04;67.04;99577.98;109602;1250;74796;-76
2023/08/11 09:56:38;;;;;;;4.10;2.00;;;;;;;24.07;67.89;99581.07;109624;1251;60056;-76
2023/08/11 09:59:10;;;;;;;3.30;2.10;;;;;;;24.23;68.67;99577.84;109585;1251;65265;-74
2023/08/11 10:01:37;;;;;;;4.40;2.30;;;;;;;24.33;67.17;99580.86;109414;1251;59194;-75
2023/08/11 10:04:17;;;;;;;2.80;2.20;;;;;;;24.37;66.76;99578.98;109637;1251;58912;-76
2023/08/11 10:06:50;;;;;;;3.80;2.40;;;;;;;24.42;66.57;99580.04;109641;1250;66056;-76
2023/08/11 10:09:22;;;;;;;4.90;2.60;;;;;;;24.44;67.19;99575.98;109630;1251;60734;-72
2023/08/11 10:11:50;;;;;;;3.50;2.80;;;;;;;24.51;67.60;99571.20;109608;1251;63607;-72
2023/08/11 10:14:20;;;;;;;5.20;2.00;;;;;;;24.58;68.00;99573.78;109622;1251;59015;-72
2023/08/11 10:16:47;;;;;;;3.00;2.40;;;;;;;24.67;67.16;99572.03;109586;1253;58858;-79
2023/08/11 10:19:14;;;;;;;3.00;2.40;;;;;;;24.78;65.75;99570.81;109612;1251;64856;-73
2023/08/11 10:21:41;;;;;;;3.90;2.00;;;;;;;24.77;64.51;99574.13;109639;1250;61212;-72
2023/08/11 10:24:08;;;;;;;3.10;2.30;;;;;;;24.70;60.78;99570.27;109357;1251;63762;-72
2023/08/11 10:26:35;;;;;;;2.80;2.00;;;;;;;24.65;60.25;99567.17;109612;1251;59044;-72
2023/08/11 10:29:03;;;;;;;4.10;2.10;;;;;;;24.71;60.35;99562.44;109627;1251;59017;-73
2023/08/11 10:31:34;;;;;;;4.80;2.20;;;;;;;24.77;60.25;99557.45;109641;1251;66075;-73
2023/08/11 10:34:08;;;;;;;2.80;2.40;;;;;;;24.85;60.21;99557.91;109638;1251;59890;-72
2023/08/11 10:36:34;;;;;;;3.40;2.30;;;;;;;24.92;59.52;99559.43;109598;1251;62934;-73
2023/08/11 10:39:06;;;;;;;4.50;2.10;;;;;;;24.94;59.43;99553.97;109604;1251;58961;-71
2023/08/11 10:41:33;;;;;;;2.40;1.80;;;;;;;25.02;60.11;99554.14;109601;1251;59102;-73
2023/08/11 10:44:00;;;;;;;3.70;1.90;;;;;;;25.02;59.61;99553.70;109437;1251;76055;-73
2023/08/11 10:46:31;;;;;;;2.20;1.90;;;;;;;24.76;58.61;99555.27;109673;1250;60947;-73
2023/08/11 10:48:59;;;;;;;3.70;2.00;;;;;;;24.71;59.59;99552.17;109616;1251;65085;-72
2023/08/11 10:51:28;;;;;;;3.40;2.00;;;;;;;24.80;58.93;99550.80;109644;1251;58928;-73
2023/08/11 10:54:02;;;;;;;3.50;1.80;;;;;;;24.96;58.54;99551.05;109645;1251;59017;-73
2023/08/11 10:56:32;;;;;;;3.40;2.10;;;;;;;25.13;58.44;99548.58;109633;1251;64698;-73
2023/08/11 10:59:18;;;;;;;2.70;2.30;;;;;;;25.26;57.89;99544.88;109602;1251;59129;-73
2023/08/11 11:01:47;;;;;;;2.00;1.70;;;;;;;25.39;58.00;99542.10;109613;1251;73487;-73
2023/08/11 11:04:15;;;;;;;2.20;1.90;;;;;;;25.52;57.46;99536.55;109586;1251;58967;-73
2023/08/11 11:06:44;;;;;;;2.40;1.90;;;;;;;25.62;56.58;99538.94;109541;1251;59017;-72
2023/08/11 11:09:11;;;;;;;2.50;1.80;;;;;;;25.74;53.86;99542.19;109631;1251;65332;-73
2023/08/11 11:11:38;;;;;;;12.10;2.60;;;;;;;25.78;53.11;99540.56;109382;1251;61314;-73
2023/08/11 11:14:06;;;;;;;2.60;1.90;;;;;;;25.78;50.99;99541.19;109585;1251;62858;-71
2023/08/11 11:16:33;;;;;;;13.30;4.30;;;;;;;25.74;49.79;99537.98;109574;1251;58957;-72
2023/08/11 11:19:01;;;;;;;2.70;2.30;;;;;;;25.79;49.91;99532.45;109588;1251;58952;-72
2023/08/11 11:21:28;;;;;;;3.70;2.20;;;;;;;25.86;50.15;99528.77;109569;1251;66051;-72
2023/08/11 11:23:55;;;;;;;4.20;2.00;;;;;;;25.97;50.27;99527.08;109643;1251;60234;-72